Space Coast Regional Airport
KTIX : now visible

Airfield :











YOU CAN JOIN US ON...

 
LOGIN :

Register | Disclaimer

   EN    FR    IT 

 









Legend :    VFR   Marginal VFR   IFR   Intensive IFR   Very Intensive IFR
Visi :
Ceiling :
>= 8 km
>= 3000ft
5 to 8 km
1000 to 3000 ft
1500m to 5 km
500 to 1000 ft
800 to 1500m
200 to 500 ft
< 800m
< 200 ft
Symbols :   Thunderstorms  Fog  Heavy snow  Heavy precipitations  Wind > 20 kt






- Airport Elevation : 34 ft


KTIX - Space Coast Regional

CURRENT METAR :
  • 051647Z 02005KT 7SM FEW120 22/06 A3013

EXPIRED METARs :
  • 051555Z 33007KT 7SM FEW120 20/07 A3014
  • 051455Z 32007KT 7SM FEW120 17/08 A3014

TAF KTIX
Valid from the 05 at 12:00 until the 06 at 12:00 UTC


051125Z 0512/0612 VRB04KT P6SM FEW250
FM051500 02007KT P6SM SCT250
FM060000 VRB02KT P6SM SCT250



MET'MAP, your aeronautical weather chart ! - Copyright ORBIFLY December 2007 - Disclaimer

ORBIFLY MET'MAP TEAM :

Programming & Development : Alexandra Zaïnal
Concept & original design : Baudouin d'Aumeries
Assistance for programming : Marc-Olivier Méhu
Technical & hardware support : Manuel Goepfert

Contact : metmap@orbifly.com




SOURCES & CREDITS :

   NOAA       Earth
Advisory